Time;durP1;ratioP1;P1;durP2;ratioP2;P2;SDS_P1;SDS_P2;PMS_P1;PMS_P2;Temp;Humidity;BMP_temperature;BMP_pressure;BME280_temperature;BME280_humidity;BME280_pressure;Samples;Min_cycle;Max_cycle;Signal;HPM_P1;HPM_P2
2023/10/26 00:01:32;;;;;;;1.95;1.75;;;16.40;99.90;;;;;;5086520;28;20063;-85
2023/10/26 00:03:59;;;;;;;2.30;1.75;;;;;;;;;;5089161;28;20419;-88
2023/10/26 00:06:25;;;;;;;1.90;1.50;;;;;;;;;;5088081;28;20173;-85
2023/10/26 00:08:51;;;;;;;2.45;1.42;;;;;;;;;;5090080;28;20477;-88
2023/10/26 00:11:17;;;;;;;2.55;1.48;;;;;;;;;;5089225;28;20146;-87
2023/10/26 00:13:42;;;;;;;5.07;2.40;;;17.10;99.90;;;;;;5089279;28;20048;-89
2023/10/26 00:16:08;;;;;;;3.05;1.80;;;;;;;;;;5087844;28;20081;-89
2023/10/26 00:18:34;;;;;;;3.90;1.50;;;17.10;99.90;;;;;;5088243;28;20056;-85
2023/10/26 00:21:00;;;;;;;4.03;1.48;;;17.80;99.90;;;;;;5089063;28;20036;-89
2023/10/26 00:23:27;;;;;;;2.83;1.05;;;;;;;;;;5088964;28;20035;-87
2023/10/26 00:25:53;;;;;;;2.92;1.20;;;14.00;99.90;;;;;;5089836;28;20051;-88
2023/10/26 00:28:19;;;;;;;1.10;1.00;;;;;;;;;;5089071;28;20103;-89
2023/10/26 00:30:45;;;;;;;2.67;1.02;;;14.40;99.90;;;;;;5087729;28;20703;-84
2023/10/26 00:33:10;;;;;;;4.70;1.38;;;16.60;99.90;;;;;;5088911;28;20024;-85
2023/10/26 00:35:36;;;;;;;6.35;1.40;;;16.40;99.90;;;;;;5088865;28;20032;-88
2023/10/26 00:38:02;;;;;;;1.95;1.27;;;16.70;99.90;;;;;;5087687;28;20017;-86
2023/10/26 00:40:27;;;;;;;4.03;1.20;;;17.30;99.90;;;;;;5087176;28;20051;-86
2023/10/26 00:43:04;;;;;;;1.67;0.90;;;17.30;99.90;;;;;;5088449;28;20029;-87
2023/10/26 00:45:35;;;;;;;0.93;0.87;;;16.10;99.90;;;;;;5086725;28;20380;-89
2023/10/26 00:48:01;;;;;;;4.68;1.10;;;;;;;;;;5089049;28;20130;-85
2023/10/26 00:50:27;;;;;;;1.67;0.80;;;16.00;99.90;;;;;;5092337;28;20069;-84
2023/10/26 00:52:54;;;;;;;5.10;1.30;;;16.30;99.90;;;;;;5093347;28;20107;-84
2023/10/26 00:55:20;;;;;;;2.45;1.02;;;13.80;99.90;;;;;;5092449;28;20031;-85
2023/10/26 00:57:46;;;;;;;4.15;1.60;;;;;;;;;;5092425;28;20028;-87
2023/10/26 01:00:12;;;;;;;10.27;2.42;;;15.40;99.90;;;;;;5091127;28;20024;-88
2023/10/26 01:02:39;;;;;;;5.60;1.55;;;15.50;99.90;;;;;;5090046;28;20373;-88
2023/10/26 01:05:05;;;;;;;4.50;1.63;;;16.30;99.90;;;;;;5092054;28;20039;-87
2023/10/26 01:07:31;;;;;;;6.53;1.55;;;;;;;;;;5090898;28;20537;-88
2023/10/26 01:09:57;;;;;;;2.75;1.17;;;15.80;99.90;;;;;;5093143;28;20020;-88
2023/10/26 01:12:23;;;;;;;7.38;1.33;;;;;;;;;;5093197;28;20142;-86
2023/10/26 01:14:49;;;;;;;6.93;1.40;;;15.30;99.90;;;;;;5092187;28;20024;-86
2023/10/26 01:17:15;;;;;;;7.60;2.55;;;;;;;;;;5090889;28;20037;-88
2023/10/26 01:19:43;;;;;;;11.82;2.03;;;13.20;99.90;;;;;;5090420;28;20027;-88
2023/10/26 01:22:09;;;;;;;7.82;1.52;;;16.70;99.90;;;;;;5091979;28;20388;-84
2023/10/26 01:24:36;;;;;;;9.50;2.47;;;;;;;;;;5090520;28;20036;-89
2023/10/26 01:27:02;;;;;;;4.72;1.45;;;;;;;;;;5092002;28;20028;-85
2023/10/26 01:29:28;;;;;;;9.23;1.60;;;;;;;;;;5091448;28;20032;-86
2023/10/26 01:31:53;;;;;;;7.25;1.70;;;13.90;99.90;;;;;;5091436;28;20073;-86
2023/10/26 01:34:19;;;;;;;12.13;1.60;;;;;;;;;;5091746;28;20035;-89
2023/10/26 01:36:45;;;;;;;8.70;1.95;;;15.30;99.90;;;;;;5091682;28;20016;-89
2023/10/26 01:39:13;;;;;;;7.78;1.70;;;15.40;99.90;;;;;;5091655;28;20028;-89
2023/10/26 01:41:38;;;;;;;9.05;2.38;;;15.60;99.90;;;;;;5091708;28;20032;-89
2023/10/26 01:44:04;;;;;;;11.32;2.20;;;12.00;99.90;;;;;;5091580;28;20036;-85
2023/10/26 01:46:30;;;;;;;16.00;1.85;;;16.40;99.90;;;;;;5090317;28;20020;-89
2023/10/26 01:48:55;;;;;;;13.48;2.25;;;18.60;99.90;;;;;;5091018;28;20028;-89
2023/10/26 01:51:21;;;;;;;12.35;1.90;;;12.50;99.90;;;;;;5091524;28;20080;-89
2023/10/26 01:53:47;;;;;;;8.77;2.83;;;;;;;;;;5091433;28;20016;-85
2023/10/26 01:56:12;;;;;;;9.85;2.10;;;16.00;99.90;;;;;;5091457;28;20028;-89
2023/10/26 01:58:38;;;;;;;8.25;2.10;;;15.10;99.90;;;;;;5091351;28;20598;-88
2023/10/26 02:01:04;;;;;;;10.25;2.83;;;14.90;99.90;;;;;;5088103;28;20035;-85
2023/10/26 02:03:31;;;;;;;15.30;1.88;;;;;;;;;;5091176;28;20036;-84
2023/10/26 02:05:56;;;;;;;19.00;3.03;;;11.90;99.90;;;;;;5092091;28;20109;-88
2023/10/26 02:08:22;;;;;;;16.00;2.40;;;;;;;;;;5089915;28;20028;-89
2023/10/26 02:10:48;;;;;;;10.30;3.13;;;14.50;99.90;;;;;;5091078;28;20081;-85
2023/10/26 02:13:13;;;;;;;13.10;3.60;;;15.90;99.90;;;;;;5089744;28;20031;-85
2023/10/26 02:15:39;;;;;;;13.65;3.17;;;14.60;99.90;;;;;;5091102;28;20059;-89
2023/10/26 02:18:05;;;;;;;13.88;3.05;;;15.80;99.90;;;;;;5089553;28;20369;-85
2023/10/26 02:20:30;;;;;;;18.38;2.22;;;15.80;99.90;;;;;;5091472;28;20036;-88
2023/10/26 02:22:56;;;;;;;12.00;2.05;;;15.30;99.90;;;;;;5091681;28;20027;-88
2023/10/26 02:25:22;;;;;;;10.38;2.40;;;13.40;99.90;;;;;;5089685;28;20028;-85
2023/10/26 02:27:48;;;;;;;15.90;3.90;;;;;;;;;;5089527;28;20555;-89
2023/10/26 02:30:13;;;;;;;13.95;3.38;;;11.80;99.90;;;;;;5090825;28;20028;-89
2023/10/26 02:32:40;;;;;;;24.92;5.15;;;14.50;99.90;;;;;;5085322;28;20523;-86
2023/10/26 02:35:06;;;;;;;20.90;3.30;;;14.30;99.90;;;;;;5084574;28;20027;-89
2023/10/26 02:37:38;;;;;;;17.20;3.13;;;;;;;;;;5090602;28;20053;-85
2023/10/26 02:40:10;;;;;;;22.10;2.80;;;14.30;99.90;;;;;;5090586;28;20020;-84
2023/10/26 02:42:36;;;;;;;13.93;2.72;;;14.60;99.90;;;;;;5090505;28;20032;-89
2023/10/26 02:45:05;;;;;;;19.13;2.63;;;18.10;99.90;;;;;;5089963;28;20399;-89
2023/10/26 02:47:30;;;;;;;17.45;2.97;;;14.90;99.90;;;;;;5089610;28;20365;-88
2023/10/26 02:49:56;;;;;;;8.90;2.13;;;;;;;;;;5088015;28;20510;-89
2023/10/26 02:52:22;;;;;;;16.50;2.80;;;14.70;99.90;;;;;;5090542;28;20258;-89
2023/10/26 02:54:47;;;;;;;20.27;3.25;;;15.10;99.90;;;;;;5090420;28;20016;-84
2023/10/26 02:57:16;;;;;;;16.25;3.65;;;14.10;99.90;;;;;;5090240;28;20082;-89
2023/10/26 02:59:41;;;;;;;20.15;3.67;;;14.20;99.90;;;;;;5088850;28;20028;-88
2023/10/26 03:02:07;;;;;;;25.52;4.38;;;15.50;99.90;;;;;;5087853;28;20047;-87
2023/10/26 03:04:34;;;;;;;18.52;3.35;;;;;;;;;;5090737;28;20036;-85
2023/10/26 03:07:00;;;;;;;14.40;3.10;;;;;;;;;;5089661;28;20369;-88
2023/10/26 03:09:26;;;;;;;15.52;2.78;;;;;;;;;;5088593;28;20406;-84
2023/10/26 03:11:52;;;;;;;12.90;3.67;;;12.70;99.90;;;;;;5088472;28;20455;-88
2023/10/26 03:14:18;;;;;;;15.50;3.08;;;13.90;99.90;;;;;;5089825;28;20485;-88
2023/10/26 03:16:44;;;;;;;16.17;3.17;;;15.20;99.90;;;;;;5089719;28;20012;-87
2023/10/26 03:19:10;;;;;;;25.58;3.45;;;14.50;99.90;;;;;;5088308;28;20538;-85
2023/10/26 03:21:35;;;;;;;14.82;3.08;;;14.00;99.90;;;;;;5089524;28;20047;-85
2023/10/26 03:24:02;;;;;;;27.15;3.05;;;;;;;;;;5090407;28;20028;-86
2023/10/26 03:26:28;;;;;;;19.77;3.15;;;;;;;;;;5089693;28;20023;-85
2023/10/26 03:28:54;;;;;;;12.55;2.92;;;14.00;99.90;;;;;;5089505;28;20028;-85
2023/10/26 03:31:20;;;;;;;20.88;4.32;;;;;;;;;;5088317;28;20016;-88
2023/10/26 03:33:46;;;;;;;19.33;3.92;;;;;;;;;;5088662;28;20519;-84
2023/10/26 03:36:18;;;;;;;19.55;4.00;;;13.60;99.90;;;;;;5089664;28;20108;-87
2023/10/26 03:38:45;;;;;;;22.67;4.43;;;13.90;99.90;;;;;;5089454;28;20073;-85
2023/10/26 03:41:12;;;;;;;21.92;3.70;;;;;;;;;;5089645;28;20032;-89
2023/10/26 03:43:37;;;;;;;15.73;3.22;;;15.20;99.90;;;;;;5089431;28;20487;-88
2023/10/26 03:46:04;;;;;;;17.60;2.72;;;;;;;;;;5089469;28;20024;-86
2023/10/26 03:48:31;;;;;;;15.63;2.80;;;14.30;99.90;;;;;;5087043;28;20395;-88
2023/10/26 03:50:57;;;;;;;16.15;2.85;;;13.10;99.90;;;;;;5089423;28;20023;-89
2023/10/26 03:53:22;;;;;;;15.20;4.07;;;14.10;99.90;;;;;;5089405;28;20545;-88
2023/10/26 03:55:49;;;;;;;17.40;3.88;;;14.40;99.90;;;;;;5089358;28;20028;-88
2023/10/26 03:58:15;;;;;;;16.85;3.33;;;;;;;;;;5089316;28;20028;-86
2023/10/26 04:00:41;;;;;;;18.05;3.88;;;;;;;;;;5089259;28;20058;-89
2023/10/26 04:03:07;;;;;;;18.88;2.83;;;;;;;;;;5087966;28;20031;-85
2023/10/26 04:05:33;;;;;;;13.55;2.58;;;;;;;;;;5090254;28;20032;-85
2023/10/26 04:08:02;;;;;;;14.30;2.88;;;;;;;;;;5089180;28;20024;-88
2023/10/26 04:10:28;;;;;;;13.85;3.28;;;16.20;99.90;;;;;;5089478;28;20031;-88
2023/10/26 04:12:54;;;;;;;27.50;4.03;;;;;;;;;;5088995;28;20020;-88
2023/10/26 04:15:20;;;;;;;18.48;4.00;;;13.20;99.90;;;;;;5087980;28;20016;-90
2023/10/26 04:17:45;;;;;;;14.95;4.40;;;14.60;99.90;;;;;;5085608;28;20085;-84
2023/10/26 04:20:11;;;;;;;12.45;3.10;;;10.90;99.90;;;;;;5088936;28;20036;-85
2023/10/26 04:22:37;;;;;;;21.77;3.67;;;14.90;99.90;;;;;;5088327;28;20024;-84
2023/10/26 04:25:04;;;;;;;21.98;2.85;;;13.10;99.90;;;;;;5092885;28;20046;-88
2023/10/26 04:27:33;;;;;;;12.93;2.00;;;15.10;99.90;;;;;;5094170;28;20038;-88
2023/10/26 04:29:58;;;;;;;20.85;2.78;;;13.20;99.90;;;;;;5093292;28;20613;-87
2023/10/26 04:32:24;;;;;;;15.52;3.80;;;13.30;99.90;;;;;;5090725;28;20063;-85
2023/10/26 04:34:50;;;;;;;18.40;3.28;;;14.00;99.90;;;;;;5090553;28;20111;-85
2023/10/26 04:37:16;;;;;;;20.83;4.35;;;;;;;;;;5092578;28;20071;-85
2023/10/26 04:39:45;;;;;;;14.63;3.67;;;;;;;;;;5092786;28;20020;-84
2023/10/26 04:42:12;;;;;;;18.67;3.47;;;14.30;99.90;;;;;;5090532;28;20460;-84
2023/10/26 04:44:41;;;;;;;19.95;3.00;;;12.20;99.90;;;;;;5087405;28;20037;-88
2023/10/26 04:47:07;;;;;;;17.55;3.17;;;;;;;;;;5089670;28;20507;-87
2023/10/26 04:49:33;;;;;;;13.30;3.15;;;;;;;;;;5091553;28;20028;-86
2023/10/26 04:51:59;;;;;;;18.40;3.75;;;;;;;;;;5091617;28;20322;-86
2023/10/26 04:54:27;;;;;;;19.63;3.47;;;14.80;99.90;;;;;;5092313;28;20476;-84
2023/10/26 04:56:53;;;;;;;20.05;3.83;;;;;;;;;;5092472;28;20447;-86
2023/10/26 04:59:19;;;;;;;16.73;4.18;;;;;;;;;;5091175;28;20024;-84
2023/10/26 05:01:45;;;;;;;14.38;4.03;;;;;;;;;;5091428;28;20399;-88
2023/10/26 05:04:11;;;;;;;11.13;2.50;;;14.50;99.90;;;;;;5092365;28;20028;-88
2023/10/26 05:06:37;;;;;;;12.95;2.60;;;14.60;99.90;;;;;;5090612;28;20027;-84
2023/10/26 05:09:04;;;;;;;27.17;3.75;;;;;;;;;;5091255;28;20470;-84
2023/10/26 05:11:29;;;;;;;12.73;3.53;;;13.40;99.90;;;;;;5091486;28;20067;-84
2023/10/26 05:13:55;;;;;;;21.95;4.15;;;13.60;99.90;;;;;;5090638;28;20024;-84
2023/10/26 05:16:20;;;;;;;15.48;3.85;;;15.30;99.90;;;;;;5092186;28;20028;-88
2023/10/26 05:18:46;;;;;;;16.20;3.95;;;;;;;;;;5092128;28;20125;-82
2023/10/26 05:21:12;;;;;;;19.15;2.97;;;14.90;99.90;;;;;;5074109;28;20088;-84
2023/10/26 05:23:39;;;;;;;15.30;2.63;;;;;;;;;;5081277;28;20028;-85
2023/10/26 05:26:05;;;;;;;22.27;3.45;;;14.80;99.90;;;;;;5086343;28;20403;-85
2023/10/26 05:28:31;;;;;;;18.35;3.35;;;14.10;99.90;;;;;;5084195;28;20024;-85
2023/10/26 05:30:57;;;;;;;21.77;4.32;;;13.20;99.90;;;;;;5089916;28;20165;-85
2023/10/26 05:33:22;;;;;;;11.93;3.33;;;14.80;99.90;;;;;;5090686;28;20028;-84
2023/10/26 05:35:48;;;;;;;19.15;3.50;;;;;;;;;;5098174;28;20039;-84
2023/10/26 05:38:18;;;;;;;18.58;3.50;;;15.20;99.90;;;;;;5092679;28;20024;-86
2023/10/26 05:40:54;;;;;;;27.83;3.33;;;14.80;99.90;;;;;;5094600;28;20042;-87
2023/10/26 05:43:19;;;;;;;27.25;4.85;;;14.60;99.90;;;;;;5088303;28;20078;-87
2023/10/26 05:45:45;;;;;;;14.57;3.58;;;13.70;99.90;;;;;;5091555;28;20031;-85
2023/10/26 05:48:11;;;;;;;19.20;3.45;;;;;;;;;;5091715;28;20486;-85
2023/10/26 05:50:41;;;;;;;19.30;3.22;;;12.30;99.90;;;;;;5091975;28;20024;-86
2023/10/26 05:53:08;;;;;;;19.50;4.28;;;12.90;99.90;;;;;;5091841;28;20388;-86
2023/10/26 05:55:34;;;;;;;17.08;2.58;;;;;;;;;;5091403;28;20037;-87
2023/10/26 05:58:00;;;;;;;17.48;4.55;;;;;;;;;;5089931;28;20093;-86
2023/10/26 06:00:26;;;;;;;17.20;4.18;;;;;;;;;;5089691;28;20484;-88
2023/10/26 06:02:52;;;;;;;23.52;4.75;;;13.70;99.90;;;;;;5089969;28;20048;-86
2023/10/26 06:05:18;;;;;;;12.02;3.55;;;13.60;99.90;;;;;;5089732;28;20412;-90
2023/10/26 06:07:44;;;;;;;21.02;4.03;;;;;;;;;;5091238;28;20079;-85
2023/10/26 06:10:11;;;;;;;12.18;2.50;;;13.70;99.90;;;;;;5089288;28;20059;-86
2023/10/26 06:12:38;;;;;;;17.93;3.27;;;14.20;99.90;;;;;;5085028;28;20400;-87
2023/10/26 06:15:04;;;;;;;18.60;3.15;;;11.60;99.90;;;;;;5087186;28;20112;-87
2023/10/26 06:17:30;;;;;;;19.48;5.13;;;13.60;99.90;;;;;;5090183;28;20097;-84
2023/10/26 06:19:55;;;;;;;21.88;4.13;;;15.20;99.90;;;;;;5090185;28;20032;-83
2023/10/26 06:22:21;;;;;;;18.95;4.15;;;14.30;99.90;;;;;;5088737;28;20032;-87
2023/10/26 06:24:47;;;;;;;17.48;3.38;;;;;;;;;;5089948;28;20074;-83
2023/10/26 06:27:13;;;;;;;14.23;3.03;;;;;;;;;;5088664;28;20036;-85
2023/10/26 06:29:40;;;;;;;17.65;2.42;;;13.70;99.90;;;;;;5090302;28;20125;-85
2023/10/26 06:32:06;;;;;;;19.30;2.67;;;;;;;;;;5090069;28;20130;-84
2023/10/26 06:34:32;;;;;;;19.10;3.67;;;;;;;;;;5089095;28;20293;-89
2023/10/26 06:36:58;;;;;;;20.85;4.28;;;13.60;99.90;;;;;;5089995;28;20411;-88
2023/10/26 06:39:23;;;;;;;11.15;3.00;;;13.80;99.90;;;;;;5083072;28;20032;-84
2023/10/26 06:41:49;;;;;;;19.00;3.45;;;13.60;99.90;;;;;;5069492;28;20494;-88
2023/10/26 06:44:15;;;;;;;9.20;2.70;;;14.10;99.90;;;;;;5069312;28;20044;-89
2023/10/26 06:46:40;;;;;;;13.90;2.60;;;15.00;99.90;;;;;;5080086;28;20431;-84
2023/10/26 06:49:06;;;;;;;17.05;3.72;;;13.70;99.90;;;;;;5082968;28;20031;-88
2023/10/26 06:51:32;;;;;;;14.18;3.85;;;;;;;;;;5089383;28;20456;-86
2023/10/26 06:53:58;;;;;;;17.42;4.40;;;;;;;;;;5089459;28;20053;-85
2023/10/26 06:56:23;;;;;;;15.55;4.30;;;14.30;99.90;;;;;;5088200;28;20166;-83
2023/10/26 06:58:49;;;;;;;17.75;4.15;;;;;;;;;;5073098;28;20025;-85
2023/10/26 07:01:16;;;;;;;15.77;3.42;;;;;;;;;;5068828;28;20061;-87
2023/10/26 07:03:42;;;;;;;14.05;3.03;;;;;;;;;;5068056;28;20037;-82
2023/10/26 07:06:07;;;;;;;12.88;3.35;;;13.50;99.90;;;;;;5069021;28;20380;-86
2023/10/26 07:08:36;;;;;;;26.83;3.80;;;14.30;99.90;;;;;;5068483;28;20040;-86
2023/10/26 07:11:05;;;;;;;18.77;3.85;;;13.60;99.90;;;;;;5068976;28;20021;-85
2023/10/26 07:13:31;;;;;;;28.08;5.30;;;14.80;99.90;;;;;;5075303;28;20047;-85
2023/10/26 07:16:00;;;;;;;25.63;4.75;;;10.70;99.90;;;;;;5088907;28;20063;-85
2023/10/26 07:18:29;;;;;;;27.30;4.93;;;13.80;99.90;;;;;;5087130;28;20445;-87
2023/10/26 07:20:55;;;;;;;21.77;4.30;;;14.50;99.90;;;;;;5088856;28;20114;-85
2023/10/26 07:23:21;;;;;;;18.48;4.22;;;;;;;;;;5088493;28;20059;-85
2023/10/26 07:25:48;;;;;;;23.98;3.95;;;14.90;99.90;;;;;;5087818;28;20415;-84
2023/10/26 07:28:14;;;;;;;26.92;3.67;;;;;;;;;;5088962;28;20553;-84
2023/10/26 07:30:44;;;;;;;17.88;3.42;;;13.80;99.90;;;;;;5079613;28;20060;-84
2023/10/26 07:33:10;;;;;;;20.83;3.05;;;13.60;99.90;;;;;;5069482;28;20048;-85
2023/10/26 07:35:42;;;;;;;19.48;3.05;;;;;;;;;;5068843;28;20480;-84
2023/10/26 07:38:08;;;;;;;21.08;3.08;;;14.00;99.90;;;;;;5087163;28;20045;-84
2023/10/26 07:40:34;;;;;;;13.95;2.83;;;;;;;;;;5088165;28;20722;-85
2023/10/26 07:43:00;;;;;;;18.10;4.25;;;15.20;99.90;;;;;;5088154;28;20025;-84
2023/10/26 07:45:26;;;;;;;27.52;4.35;;;;;;;;;;5088271;28;20100;-83
2023/10/26 07:47:52;;;;;;;17.65;3.72;;;15.00;99.90;;;;;;5078215;28;20092;-85
2023/10/26 07:50:20;;;;;;;20.15;4.35;;;14.20;99.90;;;;;;5073936;28;20119;-84
2023/10/26 07:52:46;;;;;;;11.95;3.50;;;13.90;99.90;;;;;;5088528;28;20077;-84
2023/10/26 07:55:12;;;;;;;25.65;3.40;;;;;;;;;;5087293;28;20059;-84
2023/10/26 07:57:37;;;;;;;18.88;4.10;;;14.20;99.90;;;;;;5087022;28;20043;-87
2023/10/26 08:00:04;;;;;;;18.63;4.65;;;14.20;99.90;;;;;;5087312;28;20484;-83
2023/10/26 08:02:31;;;;;;;15.73;4.30;;;15.10;99.90;;;;;;5087621;28;20400;-84
2023/10/26 08:04:57;;;;;;;17.50;3.95;;;14.20;99.90;;;;;;5076878;28;20037;-86
2023/10/26 08:07:24;;;;;;;19.42;5.15;;;;;;;;;;5079472;28;20028;-84
2023/10/26 08:09:50;;;;;;;17.63;3.93;;;14.90;99.90;;;;;;5095050;28;20101;-87
2023/10/26 08:12:16;;;;;;;20.05;3.97;;;;;;;;;;5087812;28;20064;-84
2023/10/26 08:14:42;;;;;;;15.55;3.22;;;15.40;99.90;;;;;;5088516;28;20077;-86
2023/10/26 08:17:08;;;;;;;12.88;2.80;;;;;;;;;;5084128;28;20029;-85
2023/10/26 08:19:34;;;;;;;18.27;4.10;;;;;;;;;;5087986;28;20081;-87
2023/10/26 08:21:59;;;;;;;12.40;3.45;;;14.20;99.90;;;;;;5087044;28;20036;-88
2023/10/26 08:24:25;;;;;;;23.75;3.92;;;15.30;99.90;;;;;;5086229;28;20039;-86
2023/10/26 08:26:53;;;;;;;18.85;3.75;;;;;;;;;;5087005;28;20020;-87
2023/10/26 08:29:19;;;;;;;16.65;4.60;;;;;;;;;;5087775;28;20024;-86
2023/10/26 08:31:45;;;;;;;13.55;2.97;;;;;;;;;;5086238;28;20032;-87
2023/10/26 08:34:11;;;;;;;16.33;3.15;;;15.10;99.90;;;;;;5088437;28;20051;-86
2023/10/26 08:36:37;;;;;;;13.38;2.97;;;;;;;;;;5087757;28;20064;-85
2023/10/26 08:39:03;;;;;;;16.45;2.80;;;;;;;;;;5080321;28;20020;-85
2023/10/26 08:41:32;;;;;;;17.20;4.20;;;15.30;99.90;;;;;;5086925;28;20103;-88
2023/10/26 08:43:58;;;;;;;23.55;3.78;;;12.60;99.90;;;;;;5084534;28;20047;-88
2023/10/26 08:46:24;;;;;;;21.20;4.70;;;;;;;;;;5088012;28;20111;-86
2023/10/26 08:48:54;;;;;;;19.15;3.63;;;14.90;99.90;;;;;;5088341;28;20107;-87
2023/10/26 08:51:20;;;;;;;15.70;3.65;;;;;;;;;;5088148;28;20060;-85
2023/10/26 08:53:46;;;;;;;15.93;3.72;;;;;;;;;;5089032;28;20024;-88
2023/10/26 08:56:15;;;;;;;12.63;2.67;;;16.50;99.90;;;;;;5088815;28;20028;-86
2023/10/26 08:58:42;;;;;;;17.05;3.25;;;15.10;99.90;;;;;;5086348;28;20028;-88
2023/10/26 09:01:08;;;;;;;13.57;2.67;;;;;;;;;;5078074;28;20029;-85
2023/10/26 09:03:37;;;;;;;21.65;4.47;;;15.30;99.90;;;;;;5067611;28;20462;-86
2023/10/26 09:06:03;;;;;;;26.35;4.25;;;15.10;99.90;;;;;;5083108;28;20031;-86
2023/10/26 09:08:30;;;;;;;17.92;4.20;;;15.20;99.90;;;;;;5084863;28;20024;-88
2023/10/26 09:10:56;;;;;;;16.92;4.15;;;;;;;;;;5087287;28;20028;-89
2023/10/26 09:13:33;;;;;;;32.15;4.95;;;15.40;99.90;;;;;;5077309;28;20032;-86
2023/10/26 09:15:59;;;;;;;11.35;4.35;;;;;;;;;;5091460;28;20049;-85
2023/10/26 09:18:26;;;;;;;25.13;4.18;;;15.50;99.90;;;;;;5090917;28;20031;-85
2023/10/26 09:21:03;;;;;;;33.65;5.57;;;15.60;99.90;;;;;;5090675;28;20028;-84
2023/10/26 09:23:33;;;;;;;21.42;5.05;;;15.30;99.90;;;;;;5090616;28;20028;-85
2023/10/26 09:26:01;;;;;;;27.58;4.82;;;15.70;99.90;;;;;;5091268;28;20039;-86
2023/10/26 09:28:28;;;;;;;33.42;5.18;;;;;;;;;;5091006;28;20025;-85
2023/10/26 09:30:59;;;;;;;20.58;4.00;;;17.00;99.90;;;;;;5089593;28;20028;-85
2023/10/26 09:33:26;;;;;;;18.95;4.20;;;15.90;99.90;;;;;;5090916;28;20020;-85
2023/10/26 09:35:52;;;;;;;16.08;3.95;;;16.20;99.90;;;;;;5088945;28;20026;-83
2023/10/26 09:38:41;;;;;;;18.95;4.10;;;15.70;99.90;;;;;;5099533;28;20073;-86
2023/10/26 09:41:11;;;;;;;20.48;4.57;;;15.70;99.90;;;;;;5090782;28;20027;-86
2023/10/26 09:43:37;;;;;;;21.27;3.90;;;15.80;99.90;;;;;;5089531;28;20122;-85
2023/10/26 09:46:03;;;;;;;16.58;4.60;;;14.00;99.90;;;;;;5087839;28;20107;-85
2023/10/26 09:48:30;;;;;;;18.40;3.95;;;;;;;;;;5090487;28;20020;-86
2023/10/26 09:51:00;;;;;;;21.77;4.95;;;;;;;;;;5090898;28;20475;-84
2023/10/26 09:53:32;;;;;;;19.55;4.55;;;15.70;99.90;;;;;;5090646;28;20047;-85
2023/10/26 09:55:58;;;;;;;23.35;4.57;;;;;;;;;;5090922;28;20028;-85
2023/10/26 09:58:27;;;;;;;20.48;3.92;;;16.90;99.90;;;;;;5090476;28;20376;-89
2023/10/26 10:00:53;;;;;;;20.17;3.70;;;;;;;;;;5089531;28;20027;-87
2023/10/26 10:03:19;;;;;;;18.63;3.70;;;;;;;;;;5088821;28;20025;-85
2023/10/26 10:05:47;;;;;;;17.40;3.55;;;17.20;99.90;;;;;;5091297;28;20058;-85
2023/10/26 10:08:13;;;;;;;12.23;3.93;;;16.50;99.90;;;;;;5090369;28;20021;-88
2023/10/26 10:11:15;;;;;;;24.70;3.65;;;16.00;99.90;;;;;;5090527;28;20360;-90
2023/10/26 10:13:41;;;;;;;14.57;3.13;;;;;;;;;;5072098;28;20472;-85
2023/10/26 10:16:35;;;;;;;16.02;3.78;;;17.90;99.90;;;;;;5094356;28;20020;-86
2023/10/26 10:19:26;;;;;;;21.30;3.78;;;16.40;99.90;;;;;;5090384;28;20028;-88
2023/10/26 10:21:52;;;;;;;21.25;3.65;;;;;;;;;;5087949;28;20480;-86
2023/10/26 10:24:39;;;;;;;14.25;3.25;;;17.60;99.90;;;;;;5100832;28;20099;-84
2023/10/26 10:27:18;;;;;;;16.45;4.35;;;16.30;99.90;;;;;;5087310;28;20040;-84
2023/10/26 10:29:44;;;;;;;16.52;3.47;;;16.20;99.90;;;;;;5088488;28;20050;-85
2023/10/26 10:32:10;;;;;;;21.40;2.80;;;16.30;99.90;;;;;;5089731;28;20132;-85
2023/10/26 10:34:44;;;;;;;14.90;3.58;;;17.60;99.90;;;;;;5088507;28;20233;-85
2023/10/26 10:37:10;;;;;;;22.60;3.50;;;;;;;;;;5087194;28;20392;-85
2023/10/26 10:39:37;;;;;;;15.48;4.03;;;16.20;99.90;;;;;;5090008;28;20030;-85
2023/10/26 10:42:07;;;;;;;14.52;3.63;;;16.10;99.90;;;;;;5089393;28;20016;-88
2023/10/26 10:44:35;;;;;;;19.48;3.28;;;18.10;99.90;;;;;;5080304;28;20031;-85
2023/10/26 10:47:01;;;;;;;;;;;16.40;99.90;;;;;;5088724;28;20365;-85
2023/10/26 10:49:27;;;;;;;14.40;3.13;;;16.90;99.90;;;;;;5087277;28;19910;-85
2023/10/26 10:51:53;;;;;;;14.43;2.72;;;17.60;99.90;;;;;;5089363;28;20031;-85
2023/10/26 10:54:22;;;;;;;13.27;3.05;;;17.50;99.90;;;;;;5088473;28;20483;-85
2023/10/26 10:56:49;;;;;;;11.45;2.30;;;17.10;99.90;;;;;;5089069;28;20119;-86
2023/10/26 10:59:25;;;;;;;16.45;2.60;;;16.80;99.90;;;;;;5086741;28;20024;-85
2023/10/26 11:02:06;;;;;;;13.10;2.78;;;16.30;99.90;;;;;;5086191;28;20407;-85
2023/10/26 11:04:32;;;;;;;17.85;3.50;;;;;;;;;;5087130;28;20487;-88
2023/10/26 11:06:57;;;;;;;16.27;3.17;;;17.30;99.90;;;;;;5088980;28;20024;-89
2023/10/26 11:09:26;;;;;;;13.95;2.53;;;16.30;99.90;;;;;;5088615;28;20036;-86
2023/10/26 11:11:52;;;;;;;17.30;3.28;;;;;;;;;;5088218;28;20021;-85
2023/10/26 11:14:20;;;;;;;12.55;3.15;;;;;;;;;;5083710;28;20036;-88
2023/10/26 11:16:46;;;;;;;15.13;2.50;;;;;;;;;;5088091;28;20084;-88
2023/10/26 11:19:11;;;;;;;19.30;2.95;;;16.40;99.90;;;;;;5088712;28;20032;-89
2023/10/26 11:21:38;;;;;;;19.27;4.25;;;16.40;99.90;;;;;;5088768;28;20047;-89
2023/10/26 11:24:04;;;;;;;24.42;4.32;;;;;;;;;;5088777;28;20108;-89
2023/10/26 11:26:30;;;;;;;18.08;3.20;;;15.60;99.90;;;;;;5087505;28;20513;-89
2023/10/26 11:28:56;;;;;;;11.23;2.63;;;;;;;;;;5088160;28;20486;-90
2023/10/26 11:31:41;;;;;;;20.77;3.67;;;16.50;99.90;;;;;;5089412;28;20430;-88
2023/10/26 11:34:08;;;;;;;16.70;3.75;;;;;;;;;;5087847;28;20082;-87
2023/10/26 11:36:37;;;;;;;17.75;3.45;;;16.90;99.90;;;;;;5088377;28;20024;-86
2023/10/26 11:39:04;;;;;;;22.35;4.00;;;16.70;99.90;;;;;;5088503;28;20430;-90
2023/10/26 11:41:30;;;;;;;14.13;3.65;;;;;;;;;;5088727;28;20050;-88
2023/10/26 11:43:57;;;;;;;18.10;3.40;;;17.70;99.90;;;;;;5087671;28;20020;-86
2023/10/26 11:46:34;;;;;;;11.32;3.17;;;16.80;99.90;;;;;;5086554;28;20020;-87
2023/10/26 11:49:04;;;;;;;21.42;3.97;;;17.60;99.90;;;;;;5078880;28;20031;-87
2023/10/26 11:51:31;;;;;;;15.15;2.88;;;;;;;;;;5087124;28;20028;-85
2023/10/26 11:54:09;;;;;;;18.55;3.80;;;16.60;99.90;;;;;;5085918;28;20024;-85
2023/10/26 11:56:35;;;;;;;17.35;3.50;;;17.00;99.90;;;;;;5088507;28;20207;-86
2023/10/26 11:59:00;;;;;;;18.40;3.92;;;18.10;99.90;;;;;;5088067;28;20097;-84
2023/10/26 12:01:26;;;;;;;14.98;4.43;;;17.30;99.90;;;;;;5084997;28;20012;-87
2023/10/26 12:03:52;;;;;;;11.95;2.78;;;;;;;;;;5086736;28;20032;-87
2023/10/26 12:06:18;;;;;;;18.52;3.10;;;;;;;;;;5087792;28;20415;-87
2023/10/26 12:08:44;;;;;;;13.38;2.92;;;16.80;99.90;;;;;;5088713;28;20558;-86
2023/10/26 12:11:11;;;;;;;17.75;3.85;;;;;;;;;;5088458;28;20059;-87
2023/10/26 12:13:37;;;;;;;18.55;3.45;;;;;;;;;;5065766;28;20047;-87
2023/10/26 12:16:03;;;;;;;15.57;3.28;;;;;;;;;;5071351;28;20059;-88
2023/10/26 12:18:29;;;;;;;18.23;3.30;;;;;;;;;;5068615;28;20054;-90
2023/10/26 12:20:55;;;;;;;15.77;3.65;;;;;;;;;;5076124;28;20124;-85
2023/10/26 12:23:20;;;;;;;12.95;3.20;;;16.30;99.90;;;;;;5074484;28;20462;-84
2023/10/26 12:25:46;;;;;;;11.63;2.70;;;;;;;;;;5100198;28;20032;-88
2023/10/26 12:28:12;;;;;;;12.98;3.13;;;12.60;99.90;;;;;;5086889;28;20065;-87
2023/10/26 12:30:38;;;;;;;12.05;3.17;;;17.60;99.90;;;;;;5087663;28;20038;-86
2023/10/26 12:33:03;;;;;;;14.63;5.25;;;16.90;99.90;;;;;;5087451;28;20036;-87
2023/10/26 12:35:29;;;;;;;11.52;3.95;;;17.70;99.90;;;;;;5087655;28;20344;-87
2023/10/26 12:37:55;;;;;;;8.30;3.15;;;;;;;;;;5088304;28;20024;-85
2023/10/26 12:40:21;;;;;;;13.43;3.30;;;16.40;99.90;;;;;;5086559;28;20538;-85
2023/10/26 12:42:47;;;;;;;18.58;7.70;;;;;;;;;;5087033;28;20170;-87
2023/10/26 12:45:14;;;;;;;21.95;6.28;;;;;;;;;;5089240;28;20067;-86
2023/10/26 12:47:40;;;;;;;11.85;2.42;;;;;;;;;;5088953;28;20381;-86
2023/10/26 12:50:05;;;;;;;12.02;2.30;;;17.80;99.90;;;;;;5089935;28;20097;-86
2023/10/26 12:52:31;;;;;;;5.45;2.30;;;16.50;99.90;;;;;;5091819;28;20024;-87
2023/10/26 12:54:57;;;;;;;6.70;2.28;;;15.60;99.90;;;;;;5072620;28;20492;-85
2023/10/26 12:57:22;;;;;;;13.18;4.50;;;16.40;99.90;;;;;;5087867;28;20038;-87
2023/10/26 12:59:48;;;;;;;8.65;4.35;;;13.50;99.90;;;;;;5084141;28;20400;-85
2023/10/26 13:02:14;;;;;;;6.55;3.50;;;12.90;99.90;;;;;;5077939;28;20376;-88
2023/10/26 13:04:40;;;;;;;9.85;5.57;;;;;;;;;;5089814;28;20518;-88
2023/10/26 13:07:05;;;;;;;5.82;3.08;;;17.50;99.90;;;;;;5090788;28;20030;-87
2023/10/26 13:09:31;;;;;;;4.85;2.20;;;16.40;99.90;;;;;;5090014;28;20407;-89
2023/10/26 13:11:57;;;;;;;3.85;1.67;;;;;;;;;;5086040;28;20115;-86
2023/10/26 13:14:22;;;;;;;8.85;2.42;;;17.20;99.90;;;;;;5075729;28;20028;-88